createdAt,value
2022-08-26T00:00:30.483Z,5.78
2022-08-26T00:03:04.554Z,5.50
2022-08-26T00:05:35.868Z,5.42
2022-08-26T00:08:06.121Z,6.28
2022-08-26T00:10:36.525Z,5.67
2022-08-26T00:13:06.362Z,4.97
2022-08-26T00:15:37.242Z,5.15
2022-08-26T00:18:22.043Z,5.15
2022-08-26T00:20:37.191Z,5.50
2022-08-26T00:23:06.749Z,6.12
2022-08-26T00:25:39.372Z,5.47
2022-08-26T00:28:10.847Z,5.92
2022-08-26T00:30:40.261Z,5.85
2022-08-26T00:33:09.959Z,6.03
2022-08-26T00:35:39.778Z,6.08
2022-08-26T00:38:10.402Z,5.42
2022-08-26T00:40:48.768Z,6.08
2022-08-26T00:43:18.306Z,5.37
2022-08-26T00:45:59.769Z,5.58
2022-08-26T00:48:31.955Z,5.30
2022-08-26T00:51:09.705Z,6.30
2022-08-26T00:53:41.389Z,5.95
2022-08-26T00:56:16.735Z,6.45
2022-08-26T00:58:48.042Z,5.75
2022-08-26T01:01:19.900Z,5.83
2022-08-26T01:03:50.429Z,6.20
2022-08-26T01:06:19.765Z,4.62
2022-08-26T01:08:48.503Z,5.33
2022-08-26T01:11:17.757Z,6.50
2022-08-26T01:13:49.694Z,5.50
2022-08-26T01:16:18.741Z,5.55
2022-08-26T01:18:50.010Z,5.53
2022-08-26T01:21:36.678Z,5.37
2022-08-26T01:24:07.788Z,5.55
2022-08-26T01:26:44.769Z,5.28
2022-08-26T01:29:22.727Z,6.17
2022-08-26T01:31:57.660Z,5.97
2022-08-26T01:34:29.633Z,5.67
2022-08-26T01:37:10.175Z,5.37
2022-08-26T01:39:41.418Z,5.35
2022-08-26T01:42:14.149Z,5.70
2022-08-26T01:44:46.279Z,6.15
2022-08-26T01:47:17.173Z,5.05
2022-08-26T01:49:53.714Z,5.90
2022-08-26T01:52:27.638Z,5.20
2022-08-26T01:54:58.619Z,5.58
2022-08-26T01:57:29.478Z,5.58
2022-08-26T02:00:14.150Z,5.70
2022-08-26T02:02:50.476Z,5.75
2022-08-26T02:05:45.240Z,5.53
2022-08-26T02:08:24.641Z,5.35
2022-08-26T02:10:56.735Z,5.92
2022-08-26T02:13:35.361Z,5.80
2022-08-26T02:16:08.713Z,5.67
2022-08-26T02:18:43.990Z,5.62
2022-08-26T02:21:14.823Z,5.50
2022-08-26T02:23:47.789Z,5.35
2022-08-26T02:26:20.068Z,6.22
2022-08-26T02:28:54.580Z,6.05
2022-08-26T02:31:23.794Z,5.60
2022-08-26T02:33:54.307Z,5.28
2022-08-26T02:36:35.381Z,6.03
2022-08-26T02:39:06.145Z,5.80
2022-08-26T02:41:44.977Z,5.33
2022-08-26T02:44:15.367Z,5.60
2022-08-26T02:46:47.043Z,5.42
2022-08-26T02:49:17.355Z,6.30
2022-08-26T02:51:47.076Z,5.67
2022-08-26T02:54:15.958Z,5.47
2022-08-26T02:56:45.923Z,6.00
2022-08-26T02:59:15.426Z,5.22
2022-08-26T03:01:45.434Z,5.83
2022-08-26T03:04:16.280Z,5.78
2022-08-26T03:06:52.742Z,5.40
2022-08-26T03:09:18.573Z,6.22
2022-08-26T03:11:47.361Z,5.97
2022-08-26T03:14:16.091Z,5.85
2022-08-26T03:16:44.835Z,5.40
2022-08-26T03:19:15.327Z,6.70
2022-08-26T03:21:47.203Z,6.78
2022-08-26T03:24:17.826Z,5.35
2022-08-26T03:26:52.730Z,5.17
2022-08-26T03:29:36.363Z,5.97
2022-08-26T03:32:06.273Z,5.30
2022-08-26T03:34:35.892Z,6.33
2022-08-26T03:37:05.159Z,5.85
2022-08-26T03:39:34.188Z,6.28
2022-08-26T03:42:03.049Z,5.90
2022-08-26T03:44:31.749Z,5.60
2022-08-26T03:47:01.582Z,5.62
2022-08-26T03:49:34.107Z,6.67
2022-08-26T03:52:03.795Z,5.70
2022-08-26T03:54:32.540Z,5.50
2022-08-26T03:57:01.753Z,6.00
2022-08-26T03:59:30.348Z,5.78
2022-08-26T04:02:01.267Z,5.75
2022-08-26T04:04:31.987Z,6.10
2022-08-26T04:07:03.501Z,6.08
2022-08-26T04:09:35.183Z,6.20
2022-08-26T04:12:04.566Z,5.95
2022-08-26T04:14:35.244Z,5.55
2022-08-26T04:17:08.290Z,6.05
2022-08-26T04:19:40.091Z,5.47
2022-08-26T04:22:08.772Z,6.97
2022-08-26T04:24:39.567Z,6.33
2022-08-26T04:27:08.843Z,5.45
2022-08-26T05:02:51.585Z,5.37
2022-08-26T05:05:20.659Z,6.08
2022-08-26T05:07:49.950Z,5.83
2022-08-26T05:10:22.086Z,5.67
2022-08-26T05:12:50.769Z,6.20
2022-08-26T05:15:21.516Z,5.62
2022-08-26T05:17:51.694Z,5.30
2022-08-26T05:20:25.136Z,6.10
2022-08-26T05:22:52.559Z,11.93
2022-08-26T05:25:22.311Z,6.35
2022-08-26T05:27:53.550Z,7.67
2022-08-26T05:30:25.216Z,6.92
2022-08-26T05:32:55.527Z,5.87
2022-08-26T05:35:24.240Z,6.50
2022-08-26T05:37:53.398Z,6.35
2022-08-26T05:40:24.769Z,9.00
2022-08-26T05:43:01.970Z,8.58
2022-08-26T05:45:34.785Z,7.20
2022-08-26T05:48:08.022Z,6.60
2022-08-26T05:50:50.901Z,8.10
2022-08-26T05:53:26.205Z,6.92
2022-08-26T05:55:56.401Z,14.78
2022-08-26T05:58:32.938Z,6.78
2022-08-26T06:01:09.569Z,7.95
2022-08-26T06:03:42.546Z,6.50
2022-08-26T06:06:16.788Z,6.58
2022-08-26T06:11:42.994Z,6.03
2022-08-26T06:23:26.550Z,7.30
2022-08-26T06:54:40.991Z,6.85
2022-08-26T06:57:14.872Z,5.92
2022-08-26T06:59:45.306Z,6.20
2022-08-26T07:02:15.697Z,6.67
2022-08-26T07:04:47.789Z,6.90
2022-08-26T07:07:16.790Z,6.05
2022-08-26T07:29:47.820Z,6.58
2022-08-26T07:38:55.893Z,7.33
2022-08-26T07:41:51.586Z,12.03
2022-08-26T07:44:37.311Z,5.83
2022-08-26T07:56:25.984Z,6.17
2022-08-26T07:58:56.391Z,6.35
2022-08-26T08:01:30.177Z,6.90
2022-08-26T08:04:11.813Z,6.42
2022-08-26T08:06:53.112Z,7.20
2022-08-26T08:15:56.508Z,6.90
2022-08-26T08:18:25.231Z,6.42
2022-08-26T08:20:59.131Z,7.28
2022-08-26T08:23:27.191Z,6.80
2022-08-26T08:26:08.324Z,7.42
2022-08-26T08:28:38.678Z,10.40
2022-08-26T08:31:09.700Z,6.30
2022-08-26T08:33:38.525Z,6.20
2022-08-26T08:36:09.223Z,5.72
2022-08-26T08:38:39.881Z,6.90
2022-08-26T08:41:19.615Z,6.83
2022-08-26T08:44:02.388Z,6.55
2022-08-26T08:49:26.155Z,7.00
2022-08-26T08:52:22.904Z,6.42
2022-08-26T08:54:57.835Z,7.05
2022-08-26T08:55:48.762Z,7.50
2022-08-26T08:57:53.682Z,5.97
2022-08-26T09:00:30.291Z,6.42
2022-08-26T09:03:31.241Z,6.75
2022-08-26T09:05:55.257Z,6.22
2022-08-26T09:08:50.453Z,6.60
2022-08-26T09:11:40.132Z,6.35
2022-08-26T09:14:14.376Z,5.92
2022-08-26T09:17:12.336Z,6.10
2022-08-26T09:19:51.474Z,5.80
2022-08-26T09:22:41.256Z,5.80
2022-08-26T09:25:22.572Z,5.92
2022-08-26T09:27:54.429Z,4.80
2022-08-26T09:30:35.113Z,5.25
2022-08-26T09:33:14.541Z,5.28
2022-08-26T09:35:48.761Z,5.25
2022-08-26T09:38:29.696Z,5.50
2022-08-26T09:41:05.152Z,5.12
2022-08-26T09:43:34.647Z,5.30
2022-08-26T09:46:21.513Z,5.60
2022-08-26T09:48:51.778Z,6.17
2022-08-26T09:51:29.621Z,4.75
2022-08-26T09:54:05.805Z,4.97
2022-08-26T09:56:39.210Z,5.83
2022-08-26T09:59:18.843Z,5.12
2022-08-26T10:01:48.305Z,6.58
2022-08-26T10:04:30.890Z,6.58
2022-08-26T10:07:08.387Z,5.00
2022-08-26T10:09:45.318Z,4.62
2022-08-26T10:15:08.384Z,5.47
2022-08-26T10:17:46.541Z,5.35
2022-08-26T10:20:24.039Z,4.83
2022-08-26T10:23:03.430Z,4.62
2022-08-26T10:35:57.948Z,5.40
2022-08-26T10:38:41.584Z,5.85
2022-08-26T10:41:18.238Z,6.20
2022-08-26T10:43:57.433Z,5.47
2022-08-26T10:46:29.478Z,6.67
2022-08-26T10:49:19.913Z,6.12
2022-08-26T10:52:12.149Z,6.15
2022-08-26T10:54:46.220Z,5.80
2022-08-26T10:57:46.257Z,6.65
2022-08-26T11:00:39.215Z,5.90
2022-08-26T11:03:54.550Z,6.60
2022-08-26T11:09:49.124Z,6.25
2022-08-26T11:12:42.335Z,6.20
2022-08-26T11:15:13.962Z,5.92
2022-08-26T11:20:42.500Z,6.45
2022-08-26T11:23:25.083Z,6.45
2022-08-26T11:26:11.925Z,8.13
2022-08-26T11:28:53.901Z,11.40
2022-08-26T11:31:30.617Z,6.03
2022-08-26T11:34:04.459Z,6.00
2022-08-26T11:36:54.860Z,5.90
2022-08-26T11:43:18.907Z,6.40
2022-08-26T11:48:50.831Z,5.35
2022-08-26T11:57:49.655Z,4.95
2022-08-26T12:00:34.452Z,5.08
2022-08-26T12:06:08.142Z,6.30
2022-08-26T12:08:49.530Z,4.67
2022-08-26T12:14:36.103Z,4.12
2022-08-26T12:17:49.432Z,5.00
2022-08-26T12:20:32.765Z,5.00
2022-08-26T12:23:00.873Z,4.65
2022-08-26T12:25:36.294Z,4.62
2022-08-26T12:28:14.574Z,4.30
2022-08-26T12:31:03.156Z,5.17
2022-08-26T12:33:35.453Z,6.58
2022-08-26T12:36:16.369Z,4.45
2022-08-26T12:43:13.633Z,3.80
2022-08-26T12:49:05.428Z,3.77
2022-08-26T12:52:04.120Z,3.95
2022-08-26T12:54:28.460Z,4.35
2022-08-26T12:56:57.822Z,3.50
2022-08-26T12:59:27.521Z,4.15
2022-08-26T13:01:58.380Z,3.65
2022-08-26T13:04:42.848Z,2.72
2022-08-26T13:07:22.301Z,4.25
2022-08-26T13:09:53.379Z,3.27
2022-08-26T13:12:29.888Z,3.45
2022-08-26T13:15:01.081Z,3.42
2022-08-26T13:17:30.945Z,3.35
2022-08-26T13:20:04.040Z,4.30
2022-08-26T13:22:33.746Z,3.92
2022-08-26T13:25:02.588Z,3.87
2022-08-26T13:27:31.229Z,3.85
2022-08-26T13:30:01.644Z,3.50
2022-08-26T13:32:30.493Z,3.52
2022-08-26T13:35:05.719Z,3.20
2022-08-26T13:37:34.686Z,3.67
2022-08-26T13:40:02.790Z,3.77
2022-08-26T13:42:32.556Z,3.60
2022-08-26T13:45:11.333Z,3.67
2022-08-26T13:47:40.135Z,3.72
2022-08-26T13:50:11.769Z,3.27
2022-08-26T13:52:42.244Z,3.58
2022-08-26T13:58:08.577Z,3.92
2022-08-26T14:00:43.242Z,3.12
2022-08-26T14:03:17.616Z,2.98
2022-08-26T14:05:55.659Z,3.22
2022-08-26T14:08:26.024Z,3.40
2022-08-26T14:10:59.535Z,3.80
2022-08-26T14:13:28.939Z,4.00
2022-08-26T14:16:01.735Z,3.37
2022-08-26T14:21:14.688Z,3.20
2022-08-26T14:23:46.250Z,3.12
2022-08-26T14:26:28.799Z,3.22
2022-08-26T14:28:58.007Z,3.27
2022-08-26T14:31:31.922Z,3.22
2022-08-26T14:34:09.837Z,3.10
2022-08-26T14:36:39.336Z,3.67
2022-08-26T14:39:20.152Z,3.42
2022-08-26T14:42:02.817Z,3.67
2022-08-26T14:44:44.482Z,3.00
2022-08-26T14:50:49.898Z,3.25
2022-08-26T14:54:00.419Z,3.58
2022-08-26T14:59:38.472Z,3.27
2022-08-26T15:02:13.792Z,3.80
2022-08-26T15:04:52.309Z,3.80
2022-08-26T15:07:25.421Z,4.50
2022-08-26T15:09:57.507Z,3.60
2022-08-26T15:12:37.253Z,3.70
2022-08-26T15:15:07.856Z,3.60
2022-08-26T15:17:54.834Z,3.83
2022-08-26T15:21:12.145Z,3.80
2022-08-26T15:23:20.949Z,3.58
2022-08-26T15:25:51.722Z,3.02
2022-08-26T15:28:20.531Z,3.83
2022-08-26T15:30:51.496Z,3.10
2022-08-26T15:33:22.094Z,3.35
2022-08-26T15:35:55.336Z,4.17
2022-08-26T15:38:25.420Z,2.90
2022-08-26T15:40:58.710Z,3.22
2022-08-26T15:43:29.126Z,3.33
2022-08-26T15:45:58.796Z,3.45
2022-08-26T15:48:33.877Z,3.87
2022-08-26T15:51:03.101Z,3.80
2022-08-26T15:53:34.056Z,3.40
2022-08-26T15:56:03.042Z,3.27
2022-08-26T15:58:31.988Z,3.60
2022-08-26T16:01:01.126Z,3.45
2022-08-26T16:03:29.947Z,3.15
2022-08-26T16:05:59.233Z,3.10
2022-08-26T16:08:27.827Z,3.52
2022-08-26T16:11:03.694Z,3.17
2022-08-26T16:13:39.681Z,3.30
2022-08-26T16:16:06.875Z,2.98
2022-08-26T16:18:37.374Z,3.60
2022-08-26T16:21:13.612Z,3.45
2022-08-26T16:23:39.011Z,2.98
2022-08-26T16:26:15.991Z,3.55
2022-08-26T16:28:45.035Z,3.52
2022-08-26T16:31:15.247Z,3.83
2022-08-26T16:33:46.406Z,6.08
2022-08-26T16:36:19.329Z,3.90
2022-08-26T16:38:52.750Z,3.40
2022-08-26T16:41:22.259Z,3.75
2022-08-26T16:43:53.213Z,4.25
2022-08-26T16:46:25.039Z,4.30
2022-08-26T16:48:57.791Z,3.42
2022-08-26T16:51:29.068Z,3.35
2022-08-26T16:54:01.356Z,4.35
2022-08-26T16:56:34.046Z,3.50
2022-08-26T16:59:08.468Z,4.25
2022-08-26T17:01:38.299Z,4.08
2022-08-26T17:04:07.039Z,4.12
2022-08-26T17:06:36.442Z,4.22
2022-08-26T17:09:06.848Z,4.00
2022-08-26T17:11:36.345Z,4.35
2022-08-26T17:14:05.835Z,4.42
2022-08-26T17:16:34.662Z,4.58
2022-08-26T17:19:04.574Z,7.20
2022-08-26T17:21:36.393Z,7.97
2022-08-26T17:24:06.753Z,4.67
2022-08-26T17:26:38.938Z,5.53
2022-08-26T17:29:08.109Z,4.87
2022-08-26T17:31:39.497Z,19.15
2022-08-26T17:34:09.938Z,5.55
2022-08-26T17:36:38.731Z,7.72
2022-08-26T17:39:07.519Z,9.20
2022-08-26T17:41:36.395Z,13.48
2022-08-26T17:44:06.127Z,10.70
2022-08-26T17:46:38.465Z,12.13
2022-08-26T17:49:11.021Z,13.45
2022-08-26T17:54:41.198Z,11.38
2022-08-26T17:57:10.686Z,10.63
2022-08-26T18:00:32.858Z,9.80
2022-08-26T18:03:33.659Z,6.83
2022-08-26T18:08:53.894Z,6.28
2022-08-26T18:14:59.609Z,8.00
2022-08-26T18:17:29.993Z,8.35
2022-08-26T18:19:59.096Z,8.00
2022-08-26T18:22:27.983Z,6.85
2022-08-26T18:24:58.737Z,5.78
2022-08-26T18:27:27.433Z,6.92
2022-08-26T18:29:56.548Z,5.60
2022-08-26T18:32:25.292Z,6.03
2022-08-26T18:34:54.172Z,6.40
2022-08-26T18:37:24.185Z,6.33
2022-08-26T18:39:53.737Z,6.40
2022-08-26T18:42:24.179Z,6.40
2022-08-26T18:44:53.023Z,6.58
2022-08-26T18:47:22.695Z,6.53
2022-08-26T18:49:51.491Z,6.80
2022-08-26T18:52:20.228Z,6.97
2022-08-26T18:54:48.947Z,7.47
2022-08-26T18:57:17.624Z,6.60
2022-08-26T18:59:46.466Z,8.05
2022-08-26T19:02:16.015Z,7.30
2022-08-26T19:04:44.881Z,8.05
2022-08-26T19:07:14.750Z,7.12
2022-08-26T19:09:43.349Z,7.17
2022-08-26T19:12:15.011Z,7.80
2022-08-26T19:14:48.164Z,7.50
2022-08-26T19:17:17.061Z,7.50
2022-08-26T19:20:16.036Z,7.15
2022-08-26T19:22:46.062Z,7.15
2022-08-26T19:25:14.926Z,7.67
2022-08-26T19:30:53.391Z,8.30
2022-08-26T19:33:41.595Z,8.68
2022-08-26T19:39:08.395Z,8.23
2022-08-26T19:41:39.179Z,9.43
2022-08-26T19:44:12.952Z,8.30
2022-08-26T19:49:37.836Z,8.05
2022-08-26T19:52:36.069Z,8.10
2022-08-26T20:01:09.592Z,7.55
2022-08-26T20:03:43.539Z,7.58
2022-08-26T20:06:14.403Z,7.15
2022-08-26T20:08:44.404Z,7.05
2022-08-26T20:11:16.626Z,6.92
2022-08-26T20:13:47.745Z,6.87
2022-08-26T20:16:18.303Z,6.42
2022-08-26T20:19:07.074Z,6.30
2022-08-26T20:21:38.177Z,6.28
2022-08-26T20:24:09.865Z,6.85
2022-08-26T20:26:40.480Z,4.90
2022-08-26T20:29:11.602Z,5.83
2022-08-26T20:31:41.077Z,5.62
2022-08-26T20:34:09.952Z,5.87
2022-08-26T20:36:40.859Z,5.87
2022-08-26T20:39:10.920Z,5.47
2022-08-26T20:41:40.211Z,6.67
2022-08-26T20:44:10.806Z,5.33
2022-08-26T20:46:40.893Z,5.70
2022-08-26T20:49:15.031Z,7.35
2022-08-26T20:51:45.983Z,6.65
2022-08-26T20:54:15.769Z,6.53
2022-08-26T20:59:38.539Z,6.05
2022-08-26T21:05:06.859Z,6.15
2022-08-26T21:08:37.037Z,6.15
2022-08-26T21:20:34.544Z,7.03
2022-08-26T21:23:03.561Z,7.30
2022-08-26T21:35:41.927Z,7.30
2022-08-26T21:41:41.120Z,7.53
2022-08-26T21:48:53.828Z,7.05
2022-08-26T21:51:34.009Z,6.83
2022-08-26T21:54:22.724Z,7.33
2022-08-26T22:00:09.817Z,6.17
2022-08-26T22:02:38.643Z,6.60
2022-08-26T22:05:15.934Z,7.40
2022-08-26T22:07:52.435Z,6.92
2022-08-26T22:31:44.511Z,6.95
2022-08-26T22:36:59.113Z,6.87
2022-08-26T22:39:33.323Z,7.33
2022-08-26T23:14:47.744Z,7.45
2022-08-26T23:16:58.350Z,6.87
2022-08-26T23:19:38.772Z,5.97
2022-08-26T23:22:25.198Z,5.50
2022-08-26T23:31:23.189Z,5.53
2022-08-26T23:34:31.478Z,5.70
2022-08-26T23:37:29.487Z,6.45
2022-08-26T23:40:06.817Z,6.03
2022-08-26T23:42:52.180Z,6.30
2022-08-26T23:48:42.574Z,6.00
2022-08-26T23:51:49.160Z,6.47
2022-08-26T23:54:31.464Z,6.30
2022-08-26T23:57:03.859Z,5.70
